K-storm — V2DV8 — position and weather

sailwx.info

Track history (hours):
 
Tides and Currents Weather Stations Pressure Air Temp Water Temp Dewpoint Dewpoint Depression Visibility Wind Speed Wind Dir Waves Ship Positions

K-storm

Last reported at 2014-Oct-31 17:33 UTC. Time now 2014-Oct-31 18:00 UTC.
Position N 26°05' W 080°07'.

Length 139 m; draft 7.1 m.

Type: Ship. MMSI: 305350000.

Date/timePositionNaut miles runAvg speedWind from/ knotsBaromVisibWave heightAir tempDewpointWater temp
2014-Oct-31 17:33N 26°05' W 080°07'0 0.0
2014-Oct-31 16:33N 26°05' W 080°07'0 0.0
2014-Oct-31 15:33N 26°05' W 080°07'0 0.0
2014-Oct-31 14:33N 26°05' W 080°07'0 0.0
2014-Oct-31 13:33N 26°05' W 080°07'0 0.0
2014-Oct-31 12:33N 26°05' W 080°07'0 0.0
2014-Oct-31 11:34N 26°05' W 080°07'0 0.0
2014-Oct-31 10:33N 26°05' W 080°07'0 0.0
2014-Oct-31 09:33N 26°05' W 080°07'0 0.0
2014-Oct-31 08:33N 26°05' W 080°07'0 0.0
2014-Oct-31 07:33N 26°05' W 080°07'0 0.0
2014-Oct-31 06:33N 26°05' W 080°07'0 0.0
2014-Oct-31 05:33N 26°05' W 080°07'0 0.0
2014-Oct-31 04:33N 26°05' W 080°07'0 0.0
2014-Oct-31 03:33N 26°05' W 080°07'0 0.0
2014-Oct-31 02:33N 26°05' W 080°07'0 0.0
2014-Oct-31 01:33N 26°05' W 080°07'0 0.0
2014-Oct-31 00:33N 26°05' W 080°07'0 0.0
2014-Oct-30 23:33N 26°05' W 080°07'0 0.0
2014-Oct-30 22:33N 26°05' W 080°07'0 0.0
2014-Oct-30 21:33N 26°05' W 080°07'0 0.0
2014-Oct-30 20:34N 26°05' W 080°07'0 0.0
2014-Oct-30 19:34N 26°05' W 080°07'0 0.0
2014-Oct-30 18:34N 26°05' W 080°07'0 0.0
2014-Oct-30 17:33N 26°05' W 080°07'1 1.4
2014-Oct-30 16:33N 26°04' W 080°07'0 0.0
2014-Oct-30 15:33N 26°04' W 080°07'0 0.0
2014-Oct-30 14:33N 26°04' W 080°07'0 0.0
2014-Oct-30 13:33N 26°04' W 080°07'0 0.0
2014-Oct-30 12:33N 26°04' W 080°07'0 0.0
2014-Oct-30 11:33N 26°04' W 080°07'0 0.0
2014-Oct-30 10:33N 26°04' W 080°07'0 0.0
2014-Oct-30 09:33N 26°04' W 080°07'0 0.2
2014-Oct-30 08:33N 26°04' W 080°07'4 4.0
2014-Oct-30 07:33N 26°05' W 080°02'6 5.9
2014-Oct-30 06:33N 25°60' W 079°59'1616.2
2014-Oct-30 05:33N 25°44' W 079°58'  
2014-Oct-24 08:33N 25°32' W 080°01'1413.8
2014-Oct-24 07:34N 25°45' W 080°02'1413.6
2014-Oct-24 06:33N 25°59' W 080°03'6 6.3
2014-Oct-24 05:33N 26°04' W 080°07'0 0.0
2014-Oct-24 04:27N 26°04' W 080°07'0 0.0
2014-Oct-24 03:33N 26°04' W 080°07'0 0.0
2014-Oct-24 02:21N 26°04' W 080°07'0 0.0
2014-Oct-24 01:29N 26°04' W 080°07'0 0.0
2014-Oct-24 00:26N 26°04' W 080°07'0 0.0
2014-Oct-23 23:31N 26°04' W 080°07'0 0.0
2014-Oct-23 22:28N 26°04' W 080°07'0 0.0
2014-Oct-23 21:31N 26°04' W 080°07'0 0.0
2014-Oct-23 20:30N 26°04' W 080°07'0 0.0
2014-Oct-23 19:24N 26°04' W 080°07'0 0.0
2014-Oct-23 18:26N 26°04' W 080°07'0 0.0
2014-Oct-23 17:31N 26°04' W 080°07'0 0.0
2014-Oct-23 16:28N 26°04' W 080°07'0 0.0
2014-Oct-23 15:33N 26°04' W 080°07'0 0.0
2014-Oct-23 14:30N 26°04' W 080°07'0 0.0
2014-Oct-23 13:33N 26°04' W 080°07'0 0.0
2014-Oct-23 12:32N 26°04' W 080°07'0 0.0
2014-Oct-23 11:33N 26°04' W 080°07'4 4.1
2014-Oct-23 10:33N 26°05' W 080°02'2 2.3
2014-Oct-23 09:33N 26°04' W 080°00'8 8.5
2014-Oct-23 08:33N 25°56' W 079°57'9 9.2
2014-Oct-23 07:33N 25°47' W 079°58'9 9.2
2014-Oct-23 06:33N 25°37' W 079°58'12 9.6
2014-Oct-23 05:20N 25°26' W 079°58'  
Track history (hours):
 
Tides and Currents Weather Stations Pressure Air Temp Water Temp Dewpoint Dewpoint Depression Visibility Wind Speed Wind Dir Waves Ship Positions

K-storm

Last reported at 2014-Oct-31 17:33 UTC. Time now 2014-Oct-31 18:00 UTC.
Position N 26°05' W 080°07'.

Length 139 m; draft 7.1 m.

Type: Ship. MMSI: 305350000.

Date/timePositionNaut miles runAvg speedWind from/ knotsBaromVisibWave heightAir tempDewpointWater temp
2014-Oct-31 17:33N 26°05' W 080°07'0 0.0
2014-Oct-31 16:33N 26°05' W 080°07'0 0.0
2014-Oct-31 15:33N 26°05' W 080°07'0 0.0
2014-Oct-31 14:33N 26°05' W 080°07'0 0.0
2014-Oct-31 13:33N 26°05' W 080°07'0 0.0
2014-Oct-31 12:33N 26°05' W 080°07'0 0.0
2014-Oct-31 11:34N 26°05' W 080°07'0 0.0
2014-Oct-31 10:33N 26°05' W 080°07'0 0.0
2014-Oct-31 09:33N 26°05' W 080°07'0 0.0
2014-Oct-31 08:33N 26°05' W 080°07'0 0.0
2014-Oct-31 07:33N 26°05' W 080°07'0 0.0
2014-Oct-31 06:33N 26°05' W 080°07'0 0.0
2014-Oct-31 05:33N 26°05' W 080°07'0 0.0
2014-Oct-31 04:33N 26°05' W 080°07'0 0.0
2014-Oct-31 03:33N 26°05' W 080°07'0 0.0
2014-Oct-31 02:33N 26°05' W 080°07'0 0.0
2014-Oct-31 01:33N 26°05' W 080°07'0 0.0
2014-Oct-31 00:33N 26°05' W 080°07'0 0.0
2014-Oct-30 23:33N 26°05' W 080°07'0 0.0
2014-Oct-30 22:33N 26°05' W 080°07'0 0.0
2014-Oct-30 21:33N 26°05' W 080°07'0 0.0
2014-Oct-30 20:34N 26°05' W 080°07'0 0.0
2014-Oct-30 19:34N 26°05' W 080°07'0 0.0
2014-Oct-30 18:34N 26°05' W 080°07'0 0.0
2014-Oct-30 17:33N 26°05' W 080°07'1 1.4
2014-Oct-30 16:33N 26°04' W 080°07'0 0.0
2014-Oct-30 15:33N 26°04' W 080°07'0 0.0
2014-Oct-30 14:33N 26°04' W 080°07'0 0.0
2014-Oct-30 13:33N 26°04' W 080°07'0 0.0
2014-Oct-30 12:33N 26°04' W 080°07'0 0.0
2014-Oct-30 11:33N 26°04' W 080°07'0 0.0
2014-Oct-30 10:33N 26°04' W 080°07'0 0.0
2014-Oct-30 09:33N 26°04' W 080°07'0 0.2
2014-Oct-30 08:33N 26°04' W 080°07'4 4.0
2014-Oct-30 07:33N 26°05' W 080°02'6 5.9
2014-Oct-30 06:33N 25°60' W 079°59'1616.2
2014-Oct-30 05:33N 25°44' W 079°58'  
2014-Oct-24 08:33N 25°32' W 080°01'1413.8
2014-Oct-24 07:34N 25°45' W 080°02'1413.6
2014-Oct-24 06:33N 25°59' W 080°03'6 6.3
2014-Oct-24 05:33N 26°04' W 080°07'0 0.0
2014-Oct-24 04:27N 26°04' W 080°07'0 0.0
2014-Oct-24 03:33N 26°04' W 080°07'0 0.0
2014-Oct-24 02:21N 26°04' W 080°07'0 0.0
2014-Oct-24 01:29N 26°04' W 080°07'0 0.0
2014-Oct-24 00:26N 26°04' W 080°07'0 0.0
2014-Oct-23 23:31N 26°04' W 080°07'0 0.0
2014-Oct-23 22:28N 26°04' W 080°07'0 0.0
2014-Oct-23 21:31N 26°04' W 080°07'0 0.0
2014-Oct-23 20:30N 26°04' W 080°07'0 0.0
2014-Oct-23 19:24N 26°04' W 080°07'0 0.0
2014-Oct-23 18:26N 26°04' W 080°07'0 0.0
2014-Oct-23 17:31N 26°04' W 080°07'0 0.0
2014-Oct-23 16:28N 26°04' W 080°07'0 0.0
2014-Oct-23 15:33N 26°04' W 080°07'0 0.0
2014-Oct-23 14:30N 26°04' W 080°07'0 0.0
2014-Oct-23 13:33N 26°04' W 080°07'0 0.0
2014-Oct-23 12:32N 26°04' W 080°07'0 0.0
2014-Oct-23 11:33N 26°04' W 080°07'4 4.1
2014-Oct-23 10:33N 26°05' W 080°02'2 2.3
2014-Oct-23 09:33N 26°04' W 080°00'8 8.5
2014-Oct-23 08:33N 25°56' W 079°57'9 9.2
2014-Oct-23 07:33N 25°47' W 079°58'9 9.2
2014-Oct-23 06:33N 25°37' W 079°58'12 9.6
2014-Oct-23 05:20N 25°26' W 079°58'  

Dump ship's entire track history